Atlanta, Louisiana
Current Conditions -  °F | °C
As of 6:55 AM on Thursday 27 Nov 2014 (Local Time) from KIER Reporting Station
Clear Clear  
Wind Chill: 37°   Ceiling: Unl
Heat Index: 42°   Visibility: 10mi
Dew Point: 32°   Wind: 9mph
Humidity: 67%   Direction: 350°N
Pressure: 30.47"   Gusts: NA
Location:  31.81°N, 92.74°W
Report Text: KIER 271255Z AUTO 35008KT 10SM CLR 06/00 A3047 RMK AO2 T00580001
Loading
Personal Weather Stations






























Interactive Weather Map New forecast layout! Learn more

10-Day Weather Forecast

Advertisements
Track Severe Weather on mobile